sensor_id;sensor_type;location;lat;lon;timestamp;P1;durP1;ratioP1;P2;durP2;ratioP2
47575;SDS011;33304;52.456;13.328;2022-08-19T00:01:27;8.83;;;7.63;;
47575;SDS011;33304;52.456;13.328;2022-08-19T00:03:55;8.73;;;7.70;;
47575;SDS011;33304;52.456;13.328;2022-08-19T00:06:23;9.57;;;8.67;;
47575;SDS011;33304;52.456;13.328;2022-08-19T00:08:50;7.83;;;7.13;;
47575;SDS011;33304;52.456;13.328;2022-08-19T00:11:19;8.97;;;8.07;;
47575;SDS011;33304;52.456;13.328;2022-08-19T00:13:46;9.57;;;8.57;;
47575;SDS011;33304;52.456;13.328;2022-08-19T00:16:15;9.30;;;8.40;;
47575;SDS011;33304;52.456;13.328;2022-08-19T00:18:43;9.10;;;8.30;;
47575;SDS011;33304;52.456;13.328;2022-08-19T00:21:11;11.00;;;9.83;;
47575;SDS011;33304;52.456;13.328;2022-08-19T00:23:38;9.93;;;8.93;;
47575;SDS011;33304;52.456;13.328;2022-08-19T00:26:05;11.20;;;9.30;;
47575;SDS011;33304;52.456;13.328;2022-08-19T00:28:34;10.23;;;9.17;;
47575;SDS011;33304;52.456;13.328;2022-08-19T00:31:02;9.97;;;8.97;;
47575;SDS011;33304;52.456;13.328;2022-08-19T00:33:31;10.40;;;9.30;;
47575;SDS011;33304;52.456;13.328;2022-08-19T00:35:58;11.20;;;10.10;;
47575;SDS011;33304;52.456;13.328;2022-08-19T00:38:26;10.63;;;9.63;;
47575;SDS011;33304;52.456;13.328;2022-08-19T00:40:53;10.77;;;9.77;;
47575;SDS011;33304;52.456;13.328;2022-08-19T00:43:21;10.27;;;9.27;;
47575;SDS011;33304;52.456;13.328;2022-08-19T00:45:52;10.33;;;8.80;;
47575;SDS011;33304;52.456;13.328;2022-08-19T00:48:20;9.43;;;8.53;;
47575;SDS011;33304;52.456;13.328;2022-08-19T00:50:48;9.90;;;8.90;;
47575;SDS011;33304;52.456;13.328;2022-08-19T00:53:20;10.07;;;9.17;;
47575;SDS011;33304;52.456;13.328;2022-08-19T00:55:52;10.00;;;9.00;;
47575;SDS011;33304;52.456;13.328;2022-08-19T00:58:23;10.33;;;9.40;;
47575;SDS011;33304;52.456;13.328;2022-08-19T01:00:54;11.73;;;9.33;;
47575;SDS011;33304;52.456;13.328;2022-08-19T01:03:21;10.40;;;9.30;;
47575;SDS011;33304;52.456;13.328;2022-08-19T01:05:49;10.43;;;9.43;;
47575;SDS011;33304;52.456;13.328;2022-08-19T01:08:18;10.70;;;9.70;;
47575;SDS011;33304;52.456;13.328;2022-08-19T01:10:47;10.37;;;9.37;;
47575;SDS011;33304;52.456;13.328;2022-08-19T01:13:17;10.47;;;9.47;;
47575;SDS011;33304;52.456;13.328;2022-08-19T01:15:47;11.73;;;10.50;;
47575;SDS011;33304;52.456;13.328;2022-08-19T01:18:19;10.53;;;9.43;;
47575;SDS011;33304;52.456;13.328;2022-08-19T01:20:48;10.87;;;9.63;;
47575;SDS011;33304;52.456;13.328;2022-08-19T01:23:16;11.07;;;9.47;;
47575;SDS011;33304;52.456;13.328;2022-08-19T01:25:44;9.50;;;8.60;;
47575;SDS011;33304;52.456;13.328;2022-08-19T01:28:14;9.83;;;8.83;;
47575;SDS011;33304;52.456;13.328;2022-08-19T01:30:44;10.07;;;9.00;;
47575;SDS011;33304;52.456;13.328;2022-08-19T01:33:12;10.37;;;9.37;;
47575;SDS011;33304;52.456;13.328;2022-08-19T01:35:40;9.80;;;8.80;;
47575;SDS011;33304;52.456;13.328;2022-08-19T01:38:08;10.83;;;9.73;;
47575;SDS011;33304;52.456;13.328;2022-08-19T01:40:46;11.00;;;9.90;;
47575;SDS011;33304;52.456;13.328;2022-08-19T01:43:14;12.50;;;11.20;;
47575;SDS011;33304;52.456;13.328;2022-08-19T01:45:41;12.17;;;10.70;;
47575;SDS011;33304;52.456;13.328;2022-08-19T01:48:08;14.20;;;11.33;;
47575;SDS011;33304;52.456;13.328;2022-08-19T01:50:36;11.70;;;10.50;;
47575;SDS011;33304;52.456;13.328;2022-08-19T01:53:04;14.97;;;11.57;;
47575;SDS011;33304;52.456;13.328;2022-08-19T01:55:34;13.00;;;11.70;;
47575;SDS011;33304;52.456;13.328;2022-08-19T01:58:05;12.60;;;10.83;;
47575;SDS011;33304;52.456;13.328;2022-08-19T02:00:36;12.47;;;11.13;;
47575;SDS011;33304;52.456;13.328;2022-08-19T02:03:03;12.80;;;11.50;;
47575;SDS011;33304;52.456;13.328;2022-08-19T02:05:31;11.97;;;10.77;;
47575;SDS011;33304;52.456;13.328;2022-08-19T02:07:59;12.93;;;11.53;;
47575;SDS011;33304;52.456;13.328;2022-08-19T02:10:26;15.20;;;12.33;;
47575;SDS011;33304;52.456;13.328;2022-08-19T02:12:53;12.47;;;11.17;;
47575;SDS011;33304;52.456;13.328;2022-08-19T02:15:22;18.30;;;13.47;;
47575;SDS011;33304;52.456;13.328;2022-08-19T02:17:51;14.23;;;12.37;;
47575;SDS011;33304;52.456;13.328;2022-08-19T02:20:18;18.07;;;12.20;;
47575;SDS011;33304;52.456;13.328;2022-08-19T02:22:45;13.17;;;11.77;;
47575;SDS011;33304;52.456;13.328;2022-08-19T02:25:13;15.40;;;12.73;;
47575;SDS011;33304;52.456;13.328;2022-08-19T02:27:41;15.47;;;12.90;;
47575;SDS011;33304;52.456;13.328;2022-08-19T02:30:11;13.70;;;12.30;;
47575;SDS011;33304;52.456;13.328;2022-08-19T02:32:42;13.17;;;11.73;;
47575;SDS011;33304;52.456;13.328;2022-08-19T02:35:10;17.40;;;12.10;;
47575;SDS011;33304;52.456;13.328;2022-08-19T02:37:38;13.23;;;11.90;;
47575;SDS011;33304;52.456;13.328;2022-08-19T02:40:23;13.93;;;12.07;;
47575;SDS011;33304;52.456;13.328;2022-08-19T02:42:51;15.27;;;11.73;;
47575;SDS011;33304;52.456;13.328;2022-08-19T02:45:18;12.67;;;11.47;;
47575;SDS011;33304;52.456;13.328;2022-08-19T02:47:46;12.13;;;11.00;;
47575;SDS011;33304;52.456;13.328;2022-08-19T02:50:14;13.30;;;11.90;;
47575;SDS011;33304;52.456;13.328;2022-08-19T02:52:41;13.43;;;12.13;;
47575;SDS011;33304;52.456;13.328;2022-08-19T02:55:08;13.60;;;12.20;;
47575;SDS011;33304;52.456;13.328;2022-08-19T02:57:35;13.77;;;12.47;;
47575;SDS011;33304;52.456;13.328;2022-08-19T03:00:04;13.60;;;12.30;;
47575;SDS011;33304;52.456;13.328;2022-08-19T03:02:32;15.87;;;13.50;;
47575;SDS011;33304;52.456;13.328;2022-08-19T03:05:00;14.67;;;12.93;;
47575;SDS011;33304;52.456;13.328;2022-08-19T03:07:29;14.50;;;12.03;;
47575;SDS011;33304;52.456;13.328;2022-08-19T03:09:56;13.80;;;11.60;;
47575;SDS011;33304;52.456;13.328;2022-08-19T03:12:23;13.17;;;11.80;;
47575;SDS011;33304;52.456;13.328;2022-08-19T03:14:51;15.07;;;12.87;;
47575;SDS011;33304;52.456;13.328;2022-08-19T03:17:18;14.03;;;12.63;;
47575;SDS011;33304;52.456;13.328;2022-08-19T03:19:45;13.17;;;11.90;;
47575;SDS011;33304;52.456;13.328;2022-08-19T03:22:14;13.23;;;11.77;;
47575;SDS011;33304;52.456;13.328;2022-08-19T03:24:41;13.07;;;11.77;;
47575;SDS011;33304;52.456;13.328;2022-08-19T03:27:09;15.40;;;13.70;;
47575;SDS011;33304;52.456;13.328;2022-08-19T03:29:36;13.43;;;11.90;;
47575;SDS011;33304;52.456;13.328;2022-08-19T03:32:05;13.00;;;11.80;;
47575;SDS011;33304;52.456;13.328;2022-08-19T03:34:33;13.43;;;12.13;;
47575;SDS011;33304;52.456;13.328;2022-08-19T03:37:03;12.83;;;11.53;;
47575;SDS011;33304;52.456;13.328;2022-08-19T03:39:33;14.33;;;11.93;;
47575;SDS011;33304;52.456;13.328;2022-08-19T03:42:02;13.73;;;12.43;;
47575;SDS011;33304;52.456;13.328;2022-08-19T03:44:31;14.63;;;12.70;;
47575;SDS011;33304;52.456;13.328;2022-08-19T03:46:59;15.67;;;12.70;;
47575;SDS011;33304;52.456;13.328;2022-08-19T03:49:28;13.73;;;12.43;;
47575;SDS011;33304;52.456;13.328;2022-08-19T03:51:56;13.73;;;11.80;;
47575;SDS011;33304;52.456;13.328;2022-08-19T03:54:26;15.87;;;13.40;;
47575;SDS011;33304;52.456;13.328;2022-08-19T03:56:55;14.03;;;12.63;;
47575;SDS011;33304;52.456;13.328;2022-08-19T03:59:25;13.30;;;11.93;;
47575;SDS011;33304;52.456;13.328;2022-08-19T04:01:55;16.00;;;13.60;;
47575;SDS011;33304;52.456;13.328;2022-08-19T04:04:24;14.70;;;13.27;;
47575;SDS011;33304;52.456;13.328;2022-08-19T04:06:52;14.43;;;12.57;;
47575;SDS011;33304;52.456;13.328;2022-08-19T04:09:19;13.13;;;11.73;;
47575;SDS011;33304;52.456;13.328;2022-08-19T04:11:47;12.87;;;11.57;;
47575;SDS011;33304;52.456;13.328;2022-08-19T04:14:18;12.67;;;11.47;;
47575;SDS011;33304;52.456;13.328;2022-08-19T04:16:47;12.90;;;11.70;;
47575;SDS011;33304;52.456;13.328;2022-08-19T04:19:15;15.47;;;11.67;;
47575;SDS011;33304;52.456;13.328;2022-08-19T04:21:45;12.30;;;11.00;;
47575;SDS011;33304;52.456;13.328;2022-08-19T04:24:14;11.30;;;10.20;;
47575;SDS011;33304;52.456;13.328;2022-08-19T04:26:42;10.90;;;9.63;;
47575;SDS011;33304;52.456;13.328;2022-08-19T04:29:11;11.07;;;9.97;;
47575;SDS011;33304;52.456;13.328;2022-08-19T04:31:42;11.70;;;10.13;;
47575;SDS011;33304;52.456;13.328;2022-08-19T04:34:11;11.47;;;10.37;;
47575;SDS011;33304;52.456;13.328;2022-08-19T04:36:41;11.73;;;10.33;;
47575;SDS011;33304;52.456;13.328;2022-08-19T04:39:11;11.97;;;10.77;;
47575;SDS011;33304;52.456;13.328;2022-08-19T04:41:40;11.67;;;10.57;;
47575;SDS011;33304;52.456;13.328;2022-08-19T04:44:25;13.37;;;9.90;;
47575;SDS011;33304;52.456;13.328;2022-08-19T04:46:57;11.67;;;9.63;;
47575;SDS011;33304;52.456;13.328;2022-08-19T04:49:24;11.83;;;10.63;;
47575;SDS011;33304;52.456;13.328;2022-08-19T04:51:52;12.00;;;9.57;;
47575;SDS011;33304;52.456;13.328;2022-08-19T04:54:20;10.43;;;8.70;;
47575;SDS011;33304;52.456;13.328;2022-08-19T04:56:50;11.27;;;10.03;;
47575;SDS011;33304;52.456;13.328;2022-08-19T04:59:19;12.57;;;9.77;;
47575;SDS011;33304;52.456;13.328;2022-08-19T05:01:47;10.33;;;9.33;;
47575;SDS011;33304;52.456;13.328;2022-08-19T05:04:17;10.37;;;9.37;;
47575;SDS011;33304;52.456;13.328;2022-08-19T05:06:46;9.93;;;9.03;;
47575;SDS011;33304;52.456;13.328;2022-08-19T05:09:14;9.33;;;8.53;;
47575;SDS011;33304;52.456;13.328;2022-08-19T05:11:42;10.73;;;9.43;;
47575;SDS011;33304;52.456;13.328;2022-08-19T05:14:10;10.03;;;9.00;;
47575;SDS011;33304;52.456;13.328;2022-08-19T05:16:38;10.43;;;9.20;;
47575;SDS011;33304;52.456;13.328;2022-08-19T05:19:06;10.33;;;8.73;;
47575;SDS011;33304;52.456;13.328;2022-08-19T05:21:52;9.63;;;8.63;;
47575;SDS011;33304;52.456;13.328;2022-08-19T05:24:38;10.07;;;9.07;;
47575;SDS011;33304;52.456;13.328;2022-08-19T05:27:05;9.43;;;8.47;;
47575;SDS011;33304;52.456;13.328;2022-08-19T05:29:33;10.17;;;9.03;;
47575;SDS011;33304;52.456;13.328;2022-08-19T05:32:01;15.53;;;9.93;;
47575;SDS011;33304;52.456;13.328;2022-08-19T05:34:30;10.00;;;8.53;;
47575;SDS011;33304;52.456;13.328;2022-08-19T05:37:01;10.47;;;9.47;;
47575;SDS011;33304;52.456;13.328;2022-08-19T05:39:31;12.13;;;10.83;;
47575;SDS011;33304;52.456;13.328;2022-08-19T05:42:00;11.77;;;9.83;;
47575;SDS011;33304;52.456;13.328;2022-08-19T05:44:31;11.17;;;9.93;;
47575;SDS011;33304;52.456;13.328;2022-08-19T05:47:02;12.23;;;11.00;;
47575;SDS011;33304;52.456;13.328;2022-08-19T05:49:31;12.27;;;9.77;;
47575;SDS011;33304;52.456;13.328;2022-08-19T05:52:05;12.17;;;9.67;;
47575;SDS011;33304;52.456;13.328;2022-08-19T05:54:34;11.60;;;9.67;;
47575;SDS011;33304;52.456;13.328;2022-08-19T05:57:05;10.13;;;8.97;;
47575;SDS011;33304;52.456;13.328;2022-08-19T05:59:33;9.73;;;8.60;;
47575;SDS011;33304;52.456;13.328;2022-08-19T06:02:01;11.30;;;9.57;;
47575;SDS011;33304;52.456;13.328;2022-08-19T06:04:29;9.00;;;7.93;;
47575;SDS011;33304;52.456;13.328;2022-08-19T06:06:56;10.47;;;8.90;;
47575;SDS011;33304;52.456;13.328;2022-08-19T06:09:25;9.27;;;8.37;;
47575;SDS011;33304;52.456;13.328;2022-08-19T06:11:53;10.97;;;9.83;;
47575;SDS011;33304;52.456;13.328;2022-08-19T06:14:26;9.47;;;8.57;;
47575;SDS011;33304;52.456;13.328;2022-08-19T06:16:55;10.30;;;9.30;;
47575;SDS011;33304;52.456;13.328;2022-08-19T06:19:25;9.70;;;8.70;;
47575;SDS011;33304;52.456;13.328;2022-08-19T06:21:55;10.60;;;9.60;;
47575;SDS011;33304;52.456;13.328;2022-08-19T06:24:25;11.30;;;10.20;;
47575;SDS011;33304;52.456;13.328;2022-08-19T06:26:55;10.03;;;9.03;;
47575;SDS011;33304;52.456;13.328;2022-08-19T06:29:24;11.60;;;8.57;;
47575;SDS011;33304;52.456;13.328;2022-08-19T06:31:54;11.27;;;9.87;;
47575;SDS011;33304;52.456;13.328;2022-08-19T06:34:23;11.97;;;8.87;;
47575;SDS011;33304;52.456;13.328;2022-08-19T06:36:52;10.27;;;8.43;;
47575;SDS011;33304;52.456;13.328;2022-08-19T06:39:21;10.57;;;9.57;;
47575;SDS011;33304;52.456;13.328;2022-08-19T06:41:53;10.60;;;9.50;;
47575;SDS011;33304;52.456;13.328;2022-08-19T06:44:23;9.77;;;8.77;;
47575;SDS011;33304;52.456;13.328;2022-08-19T06:46:53;11.37;;;9.13;;
47575;SDS011;33304;52.456;13.328;2022-08-19T06:49:21;11.03;;;9.93;;
47575;SDS011;33304;52.456;13.328;2022-08-19T06:51:48;10.90;;;8.80;;
47575;SDS011;33304;52.456;13.328;2022-08-19T06:54:17;12.27;;;9.37;;
47575;SDS011;33304;52.456;13.328;2022-08-19T06:56:45;10.63;;;9.63;;
47575;SDS011;33304;52.456;13.328;2022-08-19T06:59:14;12.30;;;9.67;;
47575;SDS011;33304;52.456;13.328;2022-08-19T07:01:43;10.53;;;9.53;;
47575;SDS011;33304;52.456;13.328;2022-08-19T07:04:13;10.27;;;9.27;;
47575;SDS011;33304;52.456;13.328;2022-08-19T07:06:41;10.00;;;9.07;;
47575;SDS011;33304;52.456;13.328;2022-08-19T07:09:09;9.87;;;8.27;;
47575;SDS011;33304;52.456;13.328;2022-08-19T07:11:38;12.03;;;8.60;;
47575;SDS011;33304;52.456;13.328;2022-08-19T07:14:09;11.00;;;9.50;;
47575;SDS011;33304;52.456;13.328;2022-08-19T07:16:38;9.87;;;8.37;;
47575;SDS011;33304;52.456;13.328;2022-08-19T07:19:05;10.87;;;9.63;;
47575;SDS011;33304;52.456;13.328;2022-08-19T07:21:33;10.17;;;9.17;;
47575;SDS011;33304;52.456;13.328;2022-08-19T07:24:02;10.93;;;9.70;;
47575;SDS011;33304;52.456;13.328;2022-08-19T07:26:30;11.47;;;9.77;;
47575;SDS011;33304;52.456;13.328;2022-08-19T07:29:04;10.97;;;9.10;;
47575;SDS011;33304;52.456;13.328;2022-08-19T07:31:32;10.60;;;9.60;;
47575;SDS011;33304;52.456;13.328;2022-08-19T07:34:03;11.30;;;10.10;;
47575;SDS011;33304;52.456;13.328;2022-08-19T07:36:32;11.43;;;10.33;;
47575;SDS011;33304;52.456;13.328;2022-08-19T07:39:02;9.83;;;8.93;;
47575;SDS011;33304;52.456;13.328;2022-08-19T07:41:31;11.23;;;10.13;;
47575;SDS011;33304;52.456;13.328;2022-08-19T07:43:59;11.03;;;9.73;;
47575;SDS011;33304;52.456;13.328;2022-08-19T07:46:29;12.67;;;10.60;;
47575;SDS011;33304;52.456;13.328;2022-08-19T07:48:57;10.80;;;9.77;;
47575;SDS011;33304;52.456;13.328;2022-08-19T07:51:27;12.03;;;9.70;;
47575;SDS011;33304;52.456;13.328;2022-08-19T07:53:55;13.30;;;10.70;;
47575;SDS011;33304;52.456;13.328;2022-08-19T07:56:22;11.00;;;9.90;;
47575;SDS011;33304;52.456;13.328;2022-08-19T07:58:50;11.13;;;10.03;;
47575;SDS011;33304;52.456;13.328;2022-08-19T08:01:19;12.23;;;10.80;;
47575;SDS011;33304;52.456;13.328;2022-08-19T08:03:49;10.83;;;9.73;;
47575;SDS011;33304;52.456;13.328;2022-08-19T08:06:37;12.00;;;10.80;;
47575;SDS011;33304;52.456;13.328;2022-08-19T08:09:23;12.17;;;10.97;;
47575;SDS011;33304;52.456;13.328;2022-08-19T08:11:53;12.43;;;11.17;;
47575;SDS011;33304;52.456;13.328;2022-08-19T08:14:23;11.13;;;10.13;;
47575;SDS011;33304;52.456;13.328;2022-08-19T08:16:52;11.50;;;10.40;;
47575;SDS011;33304;52.456;13.328;2022-08-19T08:19:20;11.40;;;10.35;;
47575;SDS011;33304;52.456;13.328;2022-08-19T08:21:51;11.10;;;10.03;;
47575;SDS011;33304;52.456;13.328;2022-08-19T08:24:19;12.53;;;11.33;;
47575;SDS011;33304;52.456;13.328;2022-08-19T08:26:46;13.23;;;11.93;;
47575;SDS011;33304;52.456;13.328;2022-08-19T08:29:13;13.27;;;11.97;;
47575;SDS011;33304;52.456;13.328;2022-08-19T08:31:41;12.63;;;11.33;;
47575;SDS011;33304;52.456;13.328;2022-08-19T08:34:11;12.20;;;11.10;;
47575;SDS011;33304;52.456;13.328;2022-08-19T08:36:39;12.93;;;11.10;;
47575;SDS011;33304;52.456;13.328;2022-08-19T08:39:09;12.53;;;11.03;;
47575;SDS011;33304;52.456;13.328;2022-08-19T08:41:40;12.10;;;11.00;;
47575;SDS011;33304;52.456;13.328;2022-08-19T08:44:13;13.97;;;12.57;;
47575;SDS011;33304;52.456;13.328;2022-08-19T08:46:46;12.30;;;11.20;;
47575;SDS011;33304;52.456;13.328;2022-08-19T08:49:18;12.87;;;11.57;;
47575;SDS011;33304;52.456;13.328;2022-08-19T08:51:54;12.63;;;11.33;;
47575;SDS011;33304;52.456;13.328;2022-08-19T08:54:30;13.33;;;12.13;;
47575;SDS011;33304;52.456;13.328;2022-08-19T08:57:00;13.93;;;12.53;;
47575;SDS011;33304;52.456;13.328;2022-08-19T08:59:31;13.87;;;12.57;;
47575;SDS011;33304;52.456;13.328;2022-08-19T09:02:02;13.30;;;11.87;;
47575;SDS011;33304;52.456;13.328;2022-08-19T09:04:29;13.27;;;12.07;;
47575;SDS011;33304;52.456;13.328;2022-08-19T09:06:58;12.63;;;11.40;;
47575;SDS011;33304;52.456;13.328;2022-08-19T09:09:40;14.70;;;13.20;;
47575;SDS011;33304;52.456;13.328;2022-08-19T09:12:10;14.20;;;12.70;;
47575;SDS011;33304;52.456;13.328;2022-08-19T09:14:45;15.17;;;13.43;;
47575;SDS011;33304;52.456;13.328;2022-08-19T09:17:17;13.63;;;12.10;;
47575;SDS011;33304;52.456;13.328;2022-08-19T09:19:56;13.57;;;12.27;;
47575;SDS011;33304;52.456;13.328;2022-08-19T09:22:26;14.13;;;12.63;;
47575;SDS011;33304;52.456;13.328;2022-08-19T09:24:54;13.03;;;11.83;;
47575;SDS011;33304;52.456;13.328;2022-08-19T09:27:23;13.80;;;12.50;;
47575;SDS011;33304;52.456;13.328;2022-08-19T09:29:51;13.67;;;12.03;;
47575;SDS011;33304;52.456;13.328;2022-08-19T09:32:19;13.17;;;11.97;;
47575;SDS011;33304;52.456;13.328;2022-08-19T09:34:46;12.97;;;11.77;;
47575;SDS011;33304;52.456;13.328;2022-08-19T09:37:14;11.47;;;10.47;;
47575;SDS011;33304;52.456;13.328;2022-08-19T09:39:41;12.40;;;11.20;;
47575;SDS011;33304;52.456;13.328;2022-08-19T09:42:10;13.77;;;12.37;;
47575;SDS011;33304;52.456;13.328;2022-08-19T09:44:39;14.57;;;12.03;;
47575;SDS011;33304;52.456;13.328;2022-08-19T09:47:07;12.33;;;11.03;;
47575;SDS011;33304;52.456;13.328;2022-08-19T09:49:35;14.37;;;11.33;;
47575;SDS011;33304;52.456;13.328;2022-08-19T09:52:03;13.93;;;11.57;;
47575;SDS011;33304;52.456;13.328;2022-08-19T09:54:30;12.83;;;11.53;;
47575;SDS011;33304;52.456;13.328;2022-08-19T09:56:58;13.17;;;11.13;;
47575;SDS011;33304;52.456;13.328;2022-08-19T09:59:28;15.57;;;10.30;;
47575;SDS011;33304;52.456;13.328;2022-08-19T10:01:55;12.60;;;11.40;;
47575;SDS011;33304;52.456;13.328;2022-08-19T10:04:23;11.57;;;10.30;;
47575;SDS011;33304;52.456;13.328;2022-08-19T10:07:10;11.10;;;9.97;;
47575;SDS011;33304;52.456;13.328;2022-08-19T10:09:37;12.20;;;11.10;;
47575;SDS011;33304;52.456;13.328;2022-08-19T10:12:07;11.60;;;10.47;;
47575;SDS011;33304;52.456;13.328;2022-08-19T10:14:36;12.00;;;10.80;;
47575;SDS011;33304;52.456;13.328;2022-08-19T10:17:03;13.80;;;12.37;;
47575;SDS011;33304;52.456;13.328;2022-08-19T10:19:30;11.93;;;10.80;;
47575;SDS011;33304;52.456;13.328;2022-08-19T10:22:04;12.13;;;10.77;;
47575;SDS011;33304;52.456;13.328;2022-08-19T10:24:32;12.60;;;11.33;;
47575;SDS011;33304;52.456;13.328;2022-08-19T10:27:00;11.40;;;10.30;;
47575;SDS011;33304;52.456;13.328;2022-08-19T10:29:29;12.43;;;10.57;;
47575;SDS011;33304;52.456;13.328;2022-08-19T10:31:58;12.47;;;11.27;;
47575;SDS011;33304;52.456;13.328;2022-08-19T10:34:27;12.53;;;11.23;;
47575;SDS011;33304;52.456;13.328;2022-08-19T10:36:55;11.83;;;10.63;;
47575;SDS011;33304;52.456;13.328;2022-08-19T10:39:23;11.40;;;10.30;;
47575;SDS011;33304;52.456;13.328;2022-08-19T10:41:50;12.43;;;11.13;;
47575;SDS011;33304;52.456;13.328;2022-08-19T10:44:18;11.33;;;10.17;;
47575;SDS011;33304;52.456;13.328;2022-08-19T10:46:46;11.97;;;10.20;;
47575;SDS011;33304;52.456;13.328;2022-08-19T10:49:15;11.43;;;10.27;;
47575;SDS011;33304;52.456;13.328;2022-08-19T10:51:44;11.33;;;10.13;;
47575;SDS011;33304;52.456;13.328;2022-08-19T10:54:44;11.30;;;10.13;;
47575;SDS011;33304;52.456;13.328;2022-08-19T10:57:30;10.47;;;9.47;;
47575;SDS011;33304;52.456;13.328;2022-08-19T10:59:57;9.87;;;8.97;;
47575;SDS011;33304;52.456;13.328;2022-08-19T11:02:24;10.80;;;9.80;;
47575;SDS011;33304;52.456;13.328;2022-08-19T11:04:53;11.33;;;9.80;;
47575;SDS011;33304;52.456;13.328;2022-08-19T11:07:20;10.30;;;9.30;;
47575;SDS011;33304;52.456;13.328;2022-08-19T11:09:50;11.33;;;10.23;;
47575;SDS011;33304;52.456;13.328;2022-08-19T11:12:17;10.80;;;9.80;;
47575;SDS011;33304;52.456;13.328;2022-08-19T11:14:45;10.90;;;9.73;;
47575;SDS011;33304;52.456;13.328;2022-08-19T11:17:15;10.83;;;9.80;;
47575;SDS011;33304;52.456;13.328;2022-08-19T11:19:42;11.83;;;9.80;;
47575;SDS011;33304;52.456;13.328;2022-08-19T11:22:11;11.63;;;10.37;;
47575;SDS011;33304;52.456;13.328;2022-08-19T11:24:38;10.50;;;9.50;;
47575;SDS011;33304;52.456;13.328;2022-08-19T11:27:05;11.63;;;10.20;;
47575;SDS011;33304;52.456;13.328;2022-08-19T11:29:34;11.60;;;10.40;;
47575;SDS011;33304;52.456;13.328;2022-08-19T11:32:04;10.47;;;9.37;;
47575;SDS011;33304;52.456;13.328;2022-08-19T11:34:32;10.40;;;9.47;;
47575;SDS011;33304;52.456;13.328;2022-08-19T11:37:01;9.43;;;8.47;;
47575;SDS011;33304;52.456;13.328;2022-08-19T11:39:30;10.23;;;9.23;;
47575;SDS011;33304;52.456;13.328;2022-08-19T11:41:59;10.10;;;9.03;;
47575;SDS011;33304;52.456;13.328;2022-08-19T11:44:28;9.83;;;8.90;;
47575;SDS011;33304;52.456;13.328;2022-08-19T11:46:56;9.37;;;8.43;;
47575;SDS011;33304;52.456;13.328;2022-08-19T11:49:23;9.57;;;8.57;;
47575;SDS011;33304;52.456;13.328;2022-08-19T11:51:50;9.37;;;8.37;;
47575;SDS011;33304;52.456;13.328;2022-08-19T11:54:18;9.20;;;8.20;;
47575;SDS011;33304;52.456;13.328;2022-08-19T11:56:47;10.90;;;8.50;;
47575;SDS011;33304;52.456;13.328;2022-08-19T11:59:14;8.40;;;7.47;;
47575;SDS011;33304;52.456;13.328;2022-08-19T12:01:42;9.50;;;8.70;;
47575;SDS011;33304;52.456;13.328;2022-08-19T12:04:09;9.17;;;8.27;;
47575;SDS011;33304;52.456;13.328;2022-08-19T12:06:37;8.50;;;7.67;;
47575;SDS011;33304;52.456;13.328;2022-08-19T12:09:07;8.67;;;7.30;;
47575;SDS011;33304;52.456;13.328;2022-08-19T12:11:35;8.47;;;7.67;;
47575;SDS011;33304;52.456;13.328;2022-08-19T12:14:05;8.33;;;7.57;;
47575;SDS011;33304;52.456;13.328;2022-08-19T12:16:33;10.73;;;8.00;;
47575;SDS011;33304;52.456;13.328;2022-08-19T12:19:01;7.63;;;6.93;;
47575;SDS011;33304;52.456;13.328;2022-08-19T12:21:31;8.53;;;7.73;;
47575;SDS011;33304;52.456;13.328;2022-08-19T12:24:01;8.80;;;7.80;;
47575;SDS011;33304;52.456;13.328;2022-08-19T12:26:30;7.83;;;7.13;;
47575;SDS011;33304;52.456;13.328;2022-08-19T12:28:58;8.30;;;7.37;;
47575;SDS011;33304;52.456;13.328;2022-08-19T12:31:27;7.97;;;7.20;;
47575;SDS011;33304;52.456;13.328;2022-08-19T12:33:55;8.53;;;6.97;;
47575;SDS011;33304;52.456;13.328;2022-08-19T12:36:23;7.40;;;6.70;;
47575;SDS011;33304;52.456;13.328;2022-08-19T12:38:50;8.73;;;7.00;;
47575;SDS011;33304;52.456;13.328;2022-08-19T12:41:18;7.27;;;6.60;;
47575;SDS011;33304;52.456;13.328;2022-08-19T12:43:48;6.83;;;6.13;;
47575;SDS011;33304;52.456;13.328;2022-08-19T12:46:17;6.60;;;6.00;;
47575;SDS011;33304;52.456;13.328;2022-08-19T12:48:47;8.73;;;6.17;;
47575;SDS011;33304;52.456;13.328;2022-08-19T12:51:16;6.87;;;6.17;;
47575;SDS011;33304;52.456;13.328;2022-08-19T12:53:46;7.33;;;6.63;;
47575;SDS011;33304;52.456;13.328;2022-08-19T12:56:15;6.47;;;5.80;;
47575;SDS011;33304;52.456;13.328;2022-08-19T12:58:43;6.63;;;6.03;;
47575;SDS011;33304;52.456;13.328;2022-08-19T13:01:10;7.70;;;6.53;;
47575;SDS011;33304;52.456;13.328;2022-08-19T13:03:40;6.43;;;5.83;;
47575;SDS011;33304;52.456;13.328;2022-08-19T13:06:09;5.90;;;5.28;;
47575;SDS011;33304;52.456;13.328;2022-08-19T13:08:37;6.97;;;6.37;;
47575;SDS011;33304;52.456;13.328;2022-08-19T13:11:09;7.93;;;6.67;;
47575;SDS011;33304;52.456;13.328;2022-08-19T13:13:38;7.20;;;6.17;;
47575;SDS011;33304;52.456;13.328;2022-08-19T13:16:07;6.03;;;5.47;;
47575;SDS011;33304;52.456;13.328;2022-08-19T13:18:36;7.83;;;6.70;;
47575;SDS011;33304;52.456;13.328;2022-08-19T13:21:04;7.10;;;6.50;;
47575;SDS011;33304;52.456;13.328;2022-08-19T13:23:33;7.63;;;6.47;;
47575;SDS011;33304;52.456;13.328;2022-08-19T13:26:02;9.00;;;6.15;;
47575;SDS011;33304;52.456;13.328;2022-08-19T13:28:31;7.07;;;6.37;;
47575;SDS011;33304;52.456;13.328;2022-08-19T13:31:14;9.32;;;6.65;;
47575;SDS011;33304;52.456;13.328;2022-08-19T13:34:00;7.53;;;6.83;;
47575;SDS011;33304;52.456;13.328;2022-08-19T13:36:27;7.67;;;6.97;;
47575;SDS011;33304;52.456;13.328;2022-08-19T13:38:56;8.02;;;7.32;;
47575;SDS011;33304;52.456;13.328;2022-08-19T13:41:23;9.15;;;7.85;;
47575;SDS011;33304;52.456;13.328;2022-08-19T13:43:50;8.77;;;7.65;;
47575;SDS011;33304;52.456;13.328;2022-08-19T13:46:17;8.70;;;7.20;;
47575;SDS011;33304;52.456;13.328;2022-08-19T13:48:45;9.38;;;7.22;;
47575;SDS011;33304;52.456;13.328;2022-08-19T13:51:14;7.63;;;6.82;;
47575;SDS011;33304;52.456;13.328;2022-08-19T13:53:42;7.60;;;6.90;;
47575;SDS011;33304;52.456;13.328;2022-08-19T13:56:12;7.13;;;6.53;;
47575;SDS011;33304;52.456;13.328;2022-08-19T13:58:40;6.68;;;5.97;;
47575;SDS011;33304;52.456;13.328;2022-08-19T14:01:07;6.93;;;6.32;;
47575;SDS011;33304;52.456;13.328;2022-08-19T14:03:35;7.00;;;6.22;;
47575;SDS011;33304;52.456;13.328;2022-08-19T14:06:03;9.15;;;7.25;;
47575;SDS011;33304;52.456;13.328;2022-08-19T14:08:31;7.05;;;5.93;;
47575;SDS011;33304;52.456;13.328;2022-08-19T14:10:58;7.28;;;6.40;;
47575;SDS011;33304;52.456;13.328;2022-08-19T14:13:27;7.35;;;6.60;;
47575;SDS011;33304;52.456;13.328;2022-08-19T14:15:54;6.63;;;5.93;;
47575;SDS011;33304;52.456;13.328;2022-08-19T14:18:21;6.25;;;5.75;;
47575;SDS011;33304;52.456;13.328;2022-08-19T14:20:50;7.03;;;6.43;;
47575;SDS011;33304;52.456;13.328;2022-08-19T14:23:17;7.18;;;6.45;;
47575;SDS011;33304;52.456;13.328;2022-08-19T14:25:45;7.43;;;6.72;;
47575;SDS011;33304;52.456;13.328;2022-08-19T14:28:13;6.80;;;6.20;;
47575;SDS011;33304;52.456;13.328;2022-08-19T14:30:41;6.72;;;6.18;;